createdAt,value
2022-12-15T00:02:01.309Z,99.95
2022-12-15T00:04:47.896Z,93.75
2022-12-15T00:07:35.408Z,92.47
2022-12-15T00:10:23.732Z,95.20
2022-12-15T00:13:10.687Z,93.93
2022-12-15T00:15:57.050Z,100.63
2022-12-15T00:18:44.097Z,105.15
2022-12-15T00:21:30.710Z,115.82
2022-12-15T00:24:17.427Z,105.72
2022-12-15T00:27:05.587Z,110.22
2022-12-15T00:29:52.731Z,106.00
2022-12-15T00:32:39.316Z,115.15
2022-12-15T00:35:26.736Z,111.72
2022-12-15T00:38:13.056Z,109.30
2022-12-15T00:40:42.687Z,111.93
2022-12-15T00:43:13.992Z,104.63
2022-12-15T00:46:01.617Z,120.60
2022-12-15T00:48:30.949Z,105.18
2022-12-15T00:50:59.487Z,117.53
2022-12-15T00:53:46.010Z,103.60
2022-12-15T00:56:32.839Z,105.68
2022-12-15T00:59:20.869Z,97.68
2022-12-15T01:02:08.291Z,107.00
2022-12-15T01:04:55.196Z,94.50
2022-12-15T01:07:41.877Z,92.20
2022-12-15T01:10:28.139Z,88.05
2022-12-15T01:13:15.176Z,82.85
2022-12-15T01:16:03.064Z,90.88
2022-12-15T01:18:52.774Z,92.50
2022-12-15T01:21:24.880Z,93.68
2022-12-15T01:23:55.169Z,95.47
2022-12-15T01:26:24.584Z,103.07
2022-12-15T01:28:54.217Z,88.80
2022-12-15T01:31:24.994Z,98.57
2022-12-15T01:33:55.967Z,94.90
2022-12-15T01:36:25.239Z,103.72
2022-12-15T01:38:55.083Z,81.50
2022-12-15T01:41:23.744Z,90.47
2022-12-15T01:43:53.456Z,86.45
2022-12-15T01:46:26.459Z,101.80
2022-12-15T01:49:06.979Z,88.25
2022-12-15T01:51:40.708Z,88.68
2022-12-15T01:54:14.181Z,85.18
2022-12-15T01:56:47.163Z,88.63
2022-12-15T01:59:20.308Z,96.70
2022-12-15T02:01:51.268Z,80.82
2022-12-15T02:04:23.879Z,88.82
2022-12-15T02:06:53.603Z,93.68
2022-12-15T02:09:26.329Z,92.35
2022-12-15T02:12:03.688Z,93.18
2022-12-15T02:14:54.782Z,91.53
2022-12-15T02:17:34.427Z,88.22
2022-12-15T02:20:35.206Z,96.43
2022-12-15T02:23:42.779Z,99.40
2022-12-15T02:26:53.249Z,90.57
2022-12-15T02:29:42.108Z,90.95
2022-12-15T02:32:16.669Z,99.10
2022-12-15T02:34:53.254Z,90.82
2022-12-15T02:37:26.732Z,94.28
2022-12-15T02:39:56.207Z,86.82
2022-12-15T02:42:28.533Z,102.18
2022-12-15T02:45:01.657Z,99.47
2022-12-15T02:47:40.530Z,87.72
2022-12-15T02:50:23.820Z,88.32
2022-12-15T02:53:04.688Z,92.43
2022-12-15T02:55:46.803Z,95.68
2022-12-15T02:58:28.484Z,94.88
2022-12-15T03:01:03.380Z,85.38
2022-12-15T03:03:37.564Z,84.22
2022-12-15T03:06:08.064Z,98.45
2022-12-15T03:08:37.916Z,98.25
2022-12-15T03:11:07.489Z,96.22
2022-12-15T03:13:37.192Z,93.77
2022-12-15T03:16:06.962Z,85.05
2022-12-15T03:18:38.433Z,93.03
2022-12-15T03:21:07.818Z,93.05
2022-12-15T03:23:37.475Z,89.28
2022-12-15T03:26:07.284Z,92.45
2022-12-15T03:28:36.987Z,97.15
2022-12-15T03:31:06.697Z,101.15
2022-12-15T03:33:38.126Z,91.60
2022-12-15T03:36:09.868Z,101.53
2022-12-15T03:41:08.910Z,83.90
2022-12-15T03:43:38.915Z,86.85
2022-12-15T03:46:08.401Z,87.50
2022-12-15T03:48:39.518Z,87.70
2022-12-15T03:51:08.946Z,86.55
2022-12-15T03:53:38.657Z,95.70
2022-12-15T03:56:08.690Z,80.88
2022-12-15T03:58:38.320Z,88.20
2022-12-15T04:01:14.812Z,85.28
2022-12-15T04:03:46.100Z,94.90
2022-12-15T04:08:45.003Z,79.55
2022-12-15T04:11:20.043Z,92.93
2022-12-15T04:13:49.836Z,79.60
2022-12-15T04:16:20.262Z,93.78
2022-12-15T04:19:12.555Z,84.03
2022-12-15T04:21:41.969Z,85.78
2022-12-15T04:24:28.924Z,87.13
2022-12-15T04:27:15.486Z,83.00
2022-12-15T04:30:02.169Z,75.43
2022-12-15T04:32:49.807Z,87.72
2022-12-15T04:35:38.683Z,85.20
2022-12-15T04:38:25.120Z,98.53
2022-12-15T04:41:12.138Z,99.80
2022-12-15T04:43:59.196Z,82.35
2022-12-15T04:46:46.616Z,83.90
2022-12-15T04:49:33.305Z,86.90
2022-12-15T04:52:21.776Z,84.53
2022-12-15T04:55:08.348Z,84.55
2022-12-15T04:57:55.194Z,75.97
2022-12-15T05:00:41.869Z,81.18
2022-12-15T05:03:28.608Z,96.43
2022-12-15T05:06:16.524Z,94.63
2022-12-15T05:09:04.988Z,86.15
2022-12-15T05:11:51.234Z,90.50
2022-12-15T05:14:37.990Z,88.03
2022-12-15T05:17:24.465Z,94.07
2022-12-15T05:20:11.805Z,88.20
2022-12-15T05:22:58.347Z,90.30
2022-12-15T05:25:46.919Z,83.10
2022-12-15T05:28:33.902Z,76.63
2022-12-15T05:31:21.080Z,91.95
2022-12-15T05:33:50.629Z,87.63
2022-12-15T05:36:20.793Z,89.28
2022-12-15T05:38:51.371Z,98.30
2022-12-15T05:41:23.669Z,83.38
2022-12-15T05:43:53.252Z,112.25
2022-12-15T05:46:23.654Z,109.13
2022-12-15T05:48:52.955Z,90.95
2022-12-15T05:51:22.650Z,86.45
2022-12-15T05:53:52.113Z,89.90
2022-12-15T05:56:23.354Z,73.68
2022-12-15T05:58:52.706Z,83.38
2022-12-15T06:01:22.672Z,72.93
2022-12-15T06:03:52.040Z,70.55
2022-12-15T06:06:22.356Z,89.10
2022-12-15T06:08:51.978Z,81.87
2022-12-15T06:11:23.780Z,83.23
2022-12-15T06:13:53.105Z,80.68
2022-12-15T06:16:24.290Z,78.50
2022-12-15T06:21:26.635Z,85.85
2022-12-15T06:23:56.816Z,77.20
2022-12-15T06:26:29.629Z,86.03
2022-12-15T06:29:02.805Z,83.35
2022-12-15T06:31:34.319Z,77.13
2022-12-15T06:36:35.587Z,86.18
2022-12-15T06:39:06.678Z,82.43
2022-12-15T06:41:38.056Z,76.30
2022-12-15T06:44:07.720Z,89.90
2022-12-15T06:46:37.482Z,87.75
2022-12-15T06:49:06.967Z,87.43
2022-12-15T06:51:36.972Z,88.72
2022-12-15T06:54:06.728Z,91.38
2022-12-15T06:56:39.055Z,80.20
2022-12-15T06:59:09.332Z,96.13
2022-12-15T07:01:39.214Z,80.50
2022-12-15T07:04:08.999Z,81.15
2022-12-15T07:06:40.301Z,77.43
2022-12-15T07:09:16.481Z,89.93
2022-12-15T07:11:50.606Z,84.40
2022-12-15T07:14:20.231Z,78.47
2022-12-15T07:16:50.471Z,85.50
2022-12-15T07:19:19.813Z,66.47
2022-12-15T07:21:49.468Z,78.85
2022-12-15T07:24:18.718Z,71.88
2022-12-15T07:26:49.835Z,76.00
2022-12-15T07:29:23.277Z,78.32
2022-12-15T07:31:53.474Z,72.18
2022-12-15T07:34:22.972Z,73.25
2022-12-15T07:36:52.982Z,77.68
2022-12-15T07:39:22.310Z,72.07
2022-12-15T07:41:53.534Z,74.28
2022-12-15T07:44:22.924Z,74.90
2022-12-15T07:46:53.001Z,70.83
2022-12-15T07:49:22.617Z,69.97
2022-12-15T07:51:52.812Z,100.13
2022-12-15T07:54:22.432Z,87.50
2022-12-15T07:56:53.558Z,82.00
2022-12-15T07:59:23.982Z,105.18
2022-12-15T08:01:54.056Z,77.68
2022-12-15T08:04:23.599Z,82.78
2022-12-15T08:06:54.928Z,79.15
2022-12-15T08:11:54.929Z,63.30
2022-12-15T08:14:25.031Z,71.35
2022-12-15T08:16:55.145Z,69.25
2022-12-15T08:19:24.721Z,71.28
2022-12-15T08:21:54.348Z,63.80
2022-12-15T08:24:23.593Z,66.88
2022-12-15T08:26:54.752Z,71.13
2022-12-15T08:29:50.236Z,78.13
2022-12-15T08:32:14.652Z,85.15
2022-12-15T08:34:44.050Z,76.35
2022-12-15T08:37:14.522Z,84.03
2022-12-15T08:39:44.364Z,78.15
2022-12-15T08:42:16.151Z,85.18
2022-12-15T08:44:46.454Z,83.50
2022-12-15T08:49:45.634Z,101.65
2022-12-15T08:52:15.272Z,105.50
2022-12-15T08:54:44.976Z,110.10
2022-12-15T08:57:16.517Z,106.25
2022-12-15T09:02:15.861Z,86.55
2022-12-15T09:04:45.883Z,76.95
2022-12-15T09:07:15.575Z,88.32
2022-12-15T09:09:44.864Z,82.72
2022-12-15T09:12:16.340Z,82.90
2022-12-15T09:14:45.782Z,81.53
2022-12-15T09:17:16.111Z,74.28
2022-12-15T09:19:45.461Z,75.70
2022-12-15T09:22:15.124Z,79.82
2022-12-15T09:24:44.601Z,64.43
2022-12-15T09:27:15.788Z,78.65
2022-12-15T09:29:45.302Z,68.53
2022-12-15T09:32:15.656Z,65.80
2022-12-15T09:34:45.029Z,74.53
2022-12-15T09:37:14.753Z,68.47
2022-12-15T09:39:44.153Z,66.90
2022-12-15T09:42:25.686Z,63.55
2022-12-15T09:45:03.738Z,72.68
2022-12-15T09:47:41.618Z,68.82
2022-12-15T09:50:14.303Z,82.57
2022-12-15T09:52:49.651Z,77.38
2022-12-15T09:55:22.475Z,85.90
2022-12-15T09:57:56.702Z,72.43
2022-12-15T10:00:27.137Z,79.25
2022-12-15T10:03:25.063Z,84.00
2022-12-15T10:06:21.119Z,77.57
2022-12-15T10:08:56.336Z,76.68
2022-12-15T10:11:41.902Z,66.38
2022-12-15T10:14:23.729Z,66.25
2022-12-15T10:17:00.078Z,69.72
2022-12-15T10:19:38.217Z,67.00
2022-12-15T10:22:12.074Z,83.38
2022-12-15T10:25:09.164Z,64.68
2022-12-15T10:27:56.216Z,64.05
2022-12-15T10:30:27.545Z,52.15
2022-12-15T10:33:03.084Z,53.50
2022-12-15T10:35:34.660Z,49.47
2022-12-15T10:38:06.106Z,54.85
2022-12-15T10:40:50.193Z,50.75
2022-12-15T10:43:29.249Z,49.80
2022-12-15T10:46:13.730Z,43.15
2022-12-15T10:48:44.311Z,42.03
2022-12-15T10:51:24.251Z,35.08
2022-12-15T10:53:55.584Z,36.95
2022-12-15T10:56:33.116Z,37.20
2022-12-15T10:59:05.593Z,29.35
2022-12-15T11:01:37.386Z,32.10
2022-12-15T11:04:07.907Z,37.72
2022-12-15T11:06:43.164Z,28.63
2022-12-15T11:09:29.762Z,30.08
2022-12-15T11:12:16.345Z,30.52
2022-12-15T11:14:48.832Z,29.10
2022-12-15T11:17:25.149Z,29.52
2022-12-15T11:20:02.648Z,33.58
2022-12-15T11:22:44.263Z,34.80
2022-12-15T11:25:24.375Z,39.67
2022-12-15T11:27:58.621Z,38.00
2022-12-15T11:30:35.402Z,35.55
2022-12-15T11:33:07.148Z,40.75
2022-12-15T11:38:46.351Z,37.38
2022-12-15T11:41:33.845Z,36.25
2022-12-15T11:44:18.574Z,43.38
2022-12-15T11:46:57.224Z,49.58
2022-12-15T11:49:58.583Z,48.03
2022-12-15T11:52:46.345Z,41.22
2022-12-15T11:58:40.911Z,42.90
2022-12-15T12:01:20.724Z,38.42
2022-12-15T12:04:00.658Z,34.22
2022-12-15T12:06:40.253Z,39.25
2022-12-15T12:09:31.037Z,34.13
2022-12-15T12:14:50.656Z,37.65
2022-12-15T12:17:44.970Z,44.17
2022-12-15T12:20:19.645Z,47.33
2022-12-15T12:22:59.071Z,49.17
2022-12-15T12:25:28.990Z,43.35
2022-12-15T12:28:03.930Z,42.47
2022-12-15T12:30:40.340Z,45.95
2022-12-15T12:33:18.728Z,43.05
2022-12-15T12:35:51.940Z,45.38
2022-12-15T12:38:30.117Z,45.33
2022-12-15T12:41:07.810Z,50.42
2022-12-15T12:43:40.479Z,46.45
2022-12-15T12:46:14.822Z,41.28
2022-12-15T12:48:50.535Z,46.50
2022-12-15T12:51:26.584Z,50.13
2022-12-15T12:53:58.842Z,51.03
2022-12-15T12:56:41.600Z,48.03
2022-12-15T12:59:49.049Z,57.17
2022-12-15T13:02:46.972Z,49.88
2022-12-15T13:05:32.025Z,46.00
2022-12-15T13:08:52.415Z,53.00
2022-12-15T13:11:58.512Z,49.30
2022-12-15T13:14:56.105Z,50.83
2022-12-15T13:17:32.401Z,48.03
2022-12-15T13:20:21.524Z,48.50
2022-12-15T13:22:51.765Z,49.50
2022-12-15T13:25:38.379Z,47.53
2022-12-15T13:28:32.253Z,60.00
2022-12-15T13:31:30.949Z,52.72
2022-12-15T13:34:20.601Z,66.63
2022-12-15T13:37:03.132Z,55.97
2022-12-15T13:39:52.332Z,56.17
2022-12-15T13:45:48.929Z,50.17
2022-12-15T13:48:43.500Z,54.10
2022-12-15T13:51:34.802Z,58.17
2022-12-15T13:54:15.677Z,55.75
2022-12-15T13:56:55.069Z,56.15
2022-12-15T13:59:39.889Z,61.08
2022-12-15T14:02:25.947Z,58.38
2022-12-15T14:05:15.537Z,66.25
2022-12-15T14:07:54.327Z,71.73
2022-12-15T14:10:27.169Z,72.18
2022-12-15T14:12:59.505Z,73.05
2022-12-15T14:15:31.375Z,70.55
2022-12-15T14:18:03.663Z,66.65
2022-12-15T14:20:41.540Z,68.40
2022-12-15T14:23:21.069Z,62.20
2022-12-15T14:26:05.400Z,70.90
2022-12-15T14:28:37.180Z,69.05
2022-12-15T14:31:13.264Z,75.10
2022-12-15T14:33:45.627Z,76.75
2022-12-15T14:36:22.406Z,77.93
2022-12-15T14:38:55.940Z,86.13
2022-12-15T14:41:29.392Z,77.25
2022-12-15T14:46:55.656Z,83.65
2022-12-15T14:49:30.671Z,93.35
2022-12-15T14:52:05.377Z,89.43
2022-12-15T14:54:37.487Z,89.32
2022-12-15T14:57:16.373Z,98.80
2022-12-15T14:59:48.841Z,95.45
2022-12-15T15:02:23.316Z,92.22
2022-12-15T15:03:09.452Z,49.63
2022-12-15T15:03:13.202Z,48.35
2022-12-15T15:04:59.970Z,93.70
2022-12-15T15:07:31.585Z,91.97
2022-12-15T15:10:02.387Z,96.25
2022-12-15T15:12:44.982Z,115.80
2022-12-15T15:15:18.580Z,105.72
2022-12-15T15:17:52.333Z,120.88
2022-12-15T15:20:27.087Z,120.13
2022-12-15T15:23:19.597Z,111.30
2022-12-15T15:25:54.198Z,112.85
2022-12-15T15:28:27.076Z,110.90
2022-12-15T15:30:58.288Z,121.35
2022-12-15T15:33:28.383Z,111.55
2022-12-15T15:35:59.918Z,108.13
2022-12-15T15:38:33.534Z,108.03
2022-12-15T15:41:13.881Z,111.90
2022-12-15T15:43:44.148Z,126.07
2022-12-15T15:46:16.664Z,125.35
2022-12-15T15:48:48.779Z,127.32
2022-12-15T15:51:18.817Z,113.90
2022-12-15T15:53:49.845Z,112.53
2022-12-15T15:56:20.360Z,108.57
2022-12-15T15:58:49.633Z,109.25
2022-12-15T16:01:19.359Z,120.43
2022-12-15T16:03:48.956Z,109.03
2022-12-15T16:06:20.617Z,106.70
2022-12-15T16:08:53.978Z,107.95
2022-12-15T16:11:24.518Z,116.20
2022-12-15T16:13:53.910Z,126.22
2022-12-15T16:16:25.776Z,115.07
2022-12-15T16:18:55.105Z,119.90
2022-12-15T16:21:27.347Z,116.77
2022-12-15T16:23:59.563Z,127.47
2022-12-15T16:26:31.455Z,141.52
2022-12-15T16:29:01.042Z,140.65
2022-12-15T16:31:37.359Z,141.00
2022-12-15T16:34:10.551Z,133.15
2022-12-15T16:36:41.173Z,141.38
2022-12-15T16:39:25.803Z,120.97
2022-12-15T16:41:57.281Z,107.45
2022-12-15T16:44:28.031Z,116.85
2022-12-15T16:49:27.988Z,110.57
2022-12-15T16:51:58.246Z,125.53
2022-12-15T16:54:30.836Z,122.65
2022-12-15T16:57:01.456Z,112.32
2022-12-15T16:59:33.594Z,107.50
2022-12-15T17:02:04.751Z,111.97
2022-12-15T17:04:34.559Z,119.13
2022-12-15T17:07:04.231Z,106.80
2022-12-15T17:09:38.360Z,107.68
2022-12-15T17:12:10.824Z,112.22
2022-12-15T17:14:40.114Z,113.15
2022-12-15T17:17:15.562Z,101.88
2022-12-15T17:20:11.876Z,101.93
2022-12-15T17:22:35.486Z,104.27
2022-12-15T17:25:07.378Z,97.47
2022-12-15T17:27:37.056Z,95.18
2022-12-15T17:30:07.214Z,96.47
2022-12-15T17:32:36.893Z,102.43
2022-12-15T17:35:06.933Z,93.40
2022-12-15T17:37:36.745Z,96.22
2022-12-15T17:40:17.964Z,106.03
2022-12-15T17:42:48.530Z,96.53
2022-12-15T17:45:21.349Z,91.47
2022-12-15T17:47:52.420Z,85.95
2022-12-15T17:50:21.921Z,92.80
2022-12-15T17:52:52.231Z,92.60
2022-12-15T17:55:30.340Z,84.60
2022-12-15T17:58:08.172Z,102.72
2022-12-15T18:00:38.344Z,88.55
2022-12-15T18:03:08.102Z,88.75
2022-12-15T18:05:37.845Z,100.97
2022-12-15T18:08:15.676Z,100.03
2022-12-15T18:10:48.279Z,100.13
2022-12-15T18:13:20.388Z,92.40
2022-12-15T18:15:50.608Z,98.20
2022-12-15T18:20:51.762Z,120.18
2022-12-15T18:23:27.158Z,119.75
2022-12-15T18:26:02.900Z,129.73
2022-12-15T18:28:35.497Z,135.30
2022-12-15T18:31:12.305Z,118.03
2022-12-15T18:33:42.189Z,107.93
2022-12-15T18:36:11.732Z,111.82
2022-12-15T18:38:41.736Z,105.20
2022-12-15T18:41:14.854Z,101.22
2022-12-15T18:43:45.834Z,92.38
2022-12-15T18:46:15.608Z,101.03
2022-12-15T18:48:45.855Z,99.38
2022-12-15T18:51:18.485Z,103.88
2022-12-15T18:53:49.390Z,92.15
2022-12-15T18:56:21.879Z,83.00
2022-12-15T18:58:51.533Z,93.57
2022-12-15T19:01:21.110Z,85.75
2022-12-15T19:03:51.195Z,93.68
2022-12-15T19:06:30.884Z,81.22
2022-12-15T19:09:00.507Z,92.57
2022-12-15T19:11:32.388Z,95.43
2022-12-15T19:14:03.717Z,87.03
2022-12-15T19:16:53.470Z,94.85
2022-12-15T19:19:40.393Z,87.97
2022-12-15T19:22:31.465Z,93.93
2022-12-15T19:25:02.392Z,89.95
2022-12-15T19:27:33.197Z,90.57
2022-12-15T19:30:03.565Z,98.47
2022-12-15T19:32:33.031Z,85.85
2022-12-15T19:35:03.523Z,91.20
2022-12-15T19:37:33.199Z,79.82
2022-12-15T19:40:04.006Z,74.93
2022-12-15T19:42:37.398Z,84.95
2022-12-15T19:45:17.244Z,92.60
2022-12-15T19:47:47.237Z,85.35
2022-12-15T19:50:18.997Z,78.03
2022-12-15T19:52:51.806Z,85.22
2022-12-15T19:55:27.128Z,81.03
2022-12-15T19:57:57.932Z,81.95
2022-12-15T20:00:28.118Z,88.43
2022-12-15T20:02:57.961Z,79.03
2022-12-15T20:05:28.069Z,79.00
2022-12-15T20:07:57.488Z,83.55
2022-12-15T20:10:32.128Z,83.13
2022-12-15T20:13:03.817Z,84.38
2022-12-15T20:15:33.706Z,74.97
2022-12-15T20:18:03.162Z,77.35
2022-12-15T20:20:34.598Z,84.43
2022-12-15T20:23:08.173Z,80.07
2022-12-15T20:25:38.885Z,81.43
2022-12-15T20:28:18.794Z,76.35
2022-12-15T20:30:49.517Z,76.28
2022-12-15T20:33:19.146Z,69.40
2022-12-15T20:35:50.578Z,73.17
2022-12-15T20:40:56.545Z,70.40
2022-12-15T20:43:29.063Z,65.23
2022-12-15T20:46:04.793Z,71.93
2022-12-15T20:48:36.971Z,63.95
2022-12-15T20:51:09.979Z,60.97
2022-12-15T20:53:40.536Z,63.22
2022-12-15T20:58:43.296Z,65.68
2022-12-15T21:01:32.391Z,63.25
2022-12-15T21:04:04.224Z,64.88
2022-12-15T21:06:34.104Z,67.22
2022-12-15T21:09:03.622Z,62.00
2022-12-15T21:11:34.589Z,64.07
2022-12-15T21:14:05.333Z,61.95
2022-12-15T21:16:35.302Z,66.63
2022-12-15T21:19:22.410Z,59.95
2022-12-15T21:21:55.845Z,61.58
2022-12-15T21:24:27.401Z,59.78
2022-12-15T21:26:57.589Z,62.92
2022-12-15T21:29:30.244Z,55.00
2022-12-15T21:32:00.207Z,50.97
2022-12-15T21:34:29.472Z,55.38
2022-12-15T21:37:00.090Z,53.00
2022-12-15T21:39:33.438Z,49.63
2022-12-15T21:42:08.410Z,54.17
2022-12-15T21:44:39.133Z,48.97
2022-12-15T21:47:24.620Z,55.00
2022-12-15T21:49:53.455Z,61.95
2022-12-15T21:54:56.317Z,73.15
2022-12-15T21:57:26.140Z,62.97
2022-12-15T21:59:56.897Z,59.92
2022-12-15T22:02:28.412Z,69.53
2022-12-15T22:04:57.845Z,65.65
2022-12-15T22:07:28.030Z,69.22
2022-12-15T22:09:57.344Z,68.82
2022-12-15T22:12:27.416Z,75.90
2022-12-15T22:14:58.346Z,67.30
2022-12-15T22:17:28.215Z,77.07
2022-12-15T22:19:57.812Z,72.07
2022-12-15T22:22:31.771Z,72.28
2022-12-15T22:25:01.304Z,67.45
2022-12-15T22:27:34.692Z,60.80
2022-12-15T22:30:05.717Z,74.43
2022-12-15T22:32:35.440Z,79.75
2022-12-15T22:35:14.465Z,68.15
2022-12-15T22:37:45.179Z,66.10
2022-12-15T22:40:16.336Z,58.42
2022-12-15T22:42:48.391Z,73.93
2022-12-15T22:45:20.892Z,69.70
2022-12-15T22:47:53.129Z,69.25
2022-12-15T22:50:27.129Z,70.30
2022-12-15T22:52:57.307Z,62.60
2022-12-15T22:55:26.813Z,76.90
2022-12-15T22:58:00.973Z,79.20
2022-12-15T23:00:32.213Z,68.22
2022-12-15T23:03:02.590Z,72.88
2022-12-15T23:05:32.264Z,67.97
2022-12-15T23:08:02.309Z,78.72
2022-12-15T23:10:48.990Z,70.13
2022-12-15T23:13:19.408Z,77.20
2022-12-15T23:16:08.575Z,76.63
2022-12-15T23:18:38.464Z,75.53
2022-12-15T23:21:09.665Z,67.97
2022-12-15T23:23:40.862Z,64.78
2022-12-15T23:26:10.498Z,67.25
2022-12-15T23:28:40.918Z,75.20
2022-12-15T23:31:12.054Z,70.95
2022-12-15T23:33:42.616Z,70.82
2022-12-15T23:36:12.888Z,65.13
2022-12-15T23:38:42.827Z,64.35
2022-12-15T23:41:18.161Z,62.25
2022-12-15T23:43:48.326Z,48.85
2022-12-15T23:46:19.510Z,71.53
2022-12-15T23:48:49.345Z,72.63
2022-12-15T23:51:22.947Z,74.07
2022-12-15T23:53:52.630Z,72.78
2022-12-15T23:56:25.739Z,79.13
2022-12-15T23:58:58.475Z,75.10
